Time;durP1;ratioP1;P1;durP2;ratioP2;P2;SDS_P1;SDS_P2;PMS_P1;PMS_P2;Temp;Humidity;BMP_temperature;BMP_pressure;BME280_temperature;BME280_humidity;BME280_pressure;Samples;Min_cycle;Max_cycle;Signal;HPM_P1;HPM_P2
2021/07/04 00:01:16;;;;;;;7.07;6.38;;;19.00;81.10;;;;;;5073816;28;20458;-81
2021/07/04 00:03:44;;;;;;;11.23;8.52;;;19.10;81.00;;;;;;5070133;28;20032;-82
2021/07/04 00:06:10;;;;;;;12.40;8.40;;;19.10;81.90;;;;;;5072791;27;21053;-82
2021/07/04 00:08:38;;;;;;;9.60;7.65;;;19.00;81.40;;;;;;5056835;28;20028;-81
2021/07/04 00:11:06;;;;;;;11.23;8.15;;;19.00;81.20;;;;;;5071464;28;20115;-81
2021/07/04 00:13:32;;;;;;;9.25;7.97;;;18.90;81.10;;;;;;5070457;28;20043;-82
2021/07/04 00:15:58;;;;;;;11.25;9.25;;;18.80;81.40;;;;;;5068116;28;20124;-81
2021/07/04 00:18:26;;;;;;;11.52;8.75;;;18.80;81.90;;;;;;5069204;28;20217;-81
2021/07/04 00:20:52;;;;;;;7.45;6.18;;;18.80;82.00;;;;;;5069614;27;20492;-81
2021/07/04 00:23:18;;;;;;;10.05;8.30;;;18.70;82.20;;;;;;5070271;28;20094;-80
2021/07/04 00:25:44;;;;;;;10.30;9.18;;;18.70;82.90;;;;;;5067390;28;20032;-81
2021/07/04 00:28:09;;;;;;;12.88;9.85;;;18.70;84.60;;;;;;5086037;28;20028;-79
2021/07/04 00:30:35;;;;;;;11.30;9.90;;;18.70;82.80;;;;;;5069147;28;20029;-80
2021/07/04 00:33:01;;;;;;;8.73;7.78;;;18.70;82.70;;;;;;5085776;27;20066;-80
2021/07/04 00:35:26;;;;;;;8.35;6.28;;;18.70;83.40;;;;;;5070011;28;20056;-80
2021/07/04 00:37:52;;;;;;;9.43;7.88;;;18.70;82.20;;;;;;5055702;28;20052;-80
2021/07/04 00:40:21;;;;;;;8.10;7.35;;;18.70;83.10;;;;;;5087307;28;20039;-80
2021/07/04 00:42:47;;;;;;;12.15;9.07;;;18.70;82.60;;;;;;5065941;28;20155;-80
2021/07/04 00:45:20;;;;;;;13.73;9.65;;;18.70;82.70;;;;;;5052268;27;20024;-80
2021/07/04 00:47:46;;;;;;;11.48;10.13;;;18.60;84.30;;;;;;5050887;28;20052;-80
2021/07/04 00:50:12;;;;;;;11.50;10.25;;;18.60;84.80;;;;;;5053731;28;20066;-80
2021/07/04 00:52:38;;;;;;;14.68;9.18;;;18.50;85.90;;;;;;5068209;28;20032;-81
2021/07/04 00:55:04;;;;;;;11.63;10.43;;;18.40;84.80;;;;;;5050883;27;20032;-81
2021/07/04 00:57:29;;;;;;;12.85;10.27;;;18.40;85.80;;;;;;5089087;28;20495;-80
2021/07/04 00:59:55;;;;;;;8.80;7.72;;;18.50;86.90;;;;;;5073606;28;20028;-81
2021/07/04 01:02:21;;;;;;;7.88;5.65;;;18.60;85.30;;;;;;5071535;28;20054;-81
2021/07/04 01:04:46;;;;;;;10.07;6.40;;;18.70;86.30;;;;;;5068235;28;20038;-80
2021/07/04 01:07:12;;;;;;;6.93;6.03;;;18.70;84.90;;;;;;5071600;28;20035;-81
2021/07/04 01:09:37;;;;;;;12.73;9.20;;;18.70;85.30;;;;;;5087868;28;20065;-81
2021/07/04 01:12:03;;;;;;;10.43;9.43;;;18.60;85.10;;;;;;5071546;27;20479;-80
2021/07/04 01:14:29;;;;;;;15.38;10.25;;;18.60;85.50;;;;;;5069715;28;20055;-80
2021/07/04 01:16:55;;;;;;;13.95;10.45;;;18.50;86.50;;;;;;5064970;28;20479;-80
2021/07/04 01:19:20;;;;;;;11.38;9.98;;;18.50;87.50;;;;;;5087140;28;20085;-80
2021/07/04 01:21:46;;;;;;;14.68;11.00;;;18.40;89.40;;;;;;5068131;28;20039;-81
2021/07/04 01:24:12;;;;;;;11.23;9.75;;;18.40;89.70;;;;;;5063565;28;20028;-82
2021/07/04 01:26:38;;;;;;;12.82;10.52;;;18.40;90.50;;;;;;5050092;28;20029;-80
2021/07/04 01:29:03;;;;;;;10.95;9.45;;;18.40;90.50;;;;;;5052493;28;20024;-80
2021/07/04 01:31:32;;;;;;;11.43;9.63;;;18.40;90.20;;;;;;5067336;28;20032;-80
2021/07/04 01:33:57;;;;;;;13.55;9.63;;;18.40;90.30;;;;;;5052224;27;20069;-80
2021/07/04 01:36:23;;;;;;;11.57;10.32;;;18.50;88.60;;;;;;5070635;28;20028;-80
2021/07/04 01:38:49;;;;;;;13.23;11.18;;;18.40;89.80;;;;;;5038544;28;20129;-80
2021/07/04 01:41:14;;;;;;;13.90;10.95;;;18.40;89.40;;;;;;5054945;28;20495;-81
2021/07/04 01:43:40;;;;;;;13.07;11.13;;;18.40;90.10;;;;;;5066241;28;20032;-83
2021/07/04 01:46:05;;;;;;;12.63;11.32;;;18.30;90.30;;;;;;5068541;28;20093;-80
2021/07/04 01:48:31;;;;;;;16.42;10.85;;;18.30;90.60;;;;;;5066515;28;20036;-80
2021/07/04 01:50:56;;;;;;;13.07;10.40;;;18.30;90.40;;;;;;5068595;28;20028;-80
2021/07/04 01:53:22;;;;;;;9.15;7.63;;;18.30;89.90;;;;;;5064146;28;20056;-80
2021/07/04 01:55:48;;;;;;;14.55;11.23;;;18.30;89.60;;;;;;5064340;28;20035;-80
2021/07/04 01:58:13;;;;;;;11.48;10.27;;;18.30;88.20;;;;;;5054380;28;20047;-81
2021/07/04 02:00:39;;;;;;;9.77;8.65;;;18.30;88.00;;;;;;5068093;28;20028;-82
2021/07/04 02:03:06;;;;;;;12.07;10.25;;;18.30;88.00;;;;;;5068121;28;20082;-80
2021/07/04 02:05:32;;;;;;;13.60;10.95;;;18.30;89.40;;;;;;5059562;28;20036;-80
2021/07/04 02:07:57;;;;;;;14.65;11.73;;;18.30;87.60;;;;;;5052095;28;20032;-81
2021/07/04 02:10:30;;;;;;;15.38;12.65;;;18.30;87.00;;;;;;5065092;28;20123;-81
2021/07/04 02:12:55;;;;;;;15.00;11.80;;;18.30;90.00;;;;;;5051786;28;20081;-81
2021/07/04 02:15:23;;;;;;;19.08;12.48;;;18.20;87.70;;;;;;5070840;28;20040;-81
2021/07/04 02:17:49;;;;;;;14.35;12.38;;;18.20;89.50;;;;;;5068329;28;20383;-81
2021/07/04 02:20:21;;;;;;;11.93;10.65;;;18.20;90.70;;;;;;5068957;28;20534;-80
2021/07/04 02:22:46;;;;;;;12.90;9.95;;;18.20;90.80;;;;;;5066895;28;20090;-80
2021/07/04 02:25:12;;;;;;;10.23;7.65;;;18.30;89.50;;;;;;5070589;28;20425;-81
2021/07/04 02:27:38;;;;;;;18.23;12.75;;;18.30;89.40;;;;;;5068945;28;20089;-81
2021/07/04 02:30:04;;;;;;;14.68;12.52;;;18.20;88.50;;;;;;5071545;28;20024;-80
2021/07/04 02:32:29;;;;;;;15.20;12.85;;;18.20;89.00;;;;;;5062340;28;20404;-80
2021/07/04 02:34:55;;;;;;;13.82;12.30;;;18.10;88.20;;;;;;5071085;28;20388;-80
2021/07/04 02:37:20;;;;;;;10.77;8.85;;;18.10;89.10;;;;;;5070814;28;20426;-81
2021/07/04 02:39:46;;;;;;;9.43;8.45;;;18.10;89.10;;;;;;5071827;28;22099;-79
2021/07/04 02:42:11;;;;;;;10.60;9.55;;;18.20;90.50;;;;;;5070802;28;20036;-81
2021/07/04 02:44:37;;;;;;;8.82;7.28;;;18.30;89.00;;;;;;5055684;28;20032;-80
2021/07/04 02:47:02;;;;;;;9.90;7.78;;;18.20;88.50;;;;;;5073119;28;20492;-85
2021/07/04 02:49:28;;;;;;;13.43;9.68;;;18.30;90.00;;;;;;5072108;28;20365;-86
2021/07/04 02:51:53;;;;;;;8.13;7.32;;;18.30;89.30;;;;;;5068743;28;20028;-86
2021/07/04 02:54:19;;;;;;;10.18;8.82;;;18.30;89.50;;;;;;5072426;28;20479;-87
2021/07/04 02:56:44;;;;;;;8.85;8.05;;;18.30;90.50;;;;;;5088646;28;20068;-86
2021/07/04 02:59:10;;;;;;;11.55;9.30;;;18.30;90.50;;;;;;5089081;28;20032;-87
2021/07/04 03:01:36;;;;;;;15.20;13.50;;;18.20;89.00;;;;;;5053457;28;20028;-87
2021/07/04 03:04:01;;;;;;;14.82;12.52;;;18.10;90.20;;;;;;5096584;28;20028;-86
2021/07/04 03:06:27;;;;;;;20.05;13.60;;;18.10;89.90;;;;;;5059292;28;20057;-87
2021/07/04 03:08:52;;;;;;;20.85;13.43;;;17.90;90.50;;;;;;5073499;28;20488;-87
2021/07/04 03:11:18;;;;;;;15.85;14.00;;;18.00;90.50;;;;;;5088145;28;20047;-87
2021/07/04 03:13:43;;;;;;;15.35;13.85;;;18.00;90.70;;;;;;5056483;28;20024;-87
2021/07/04 03:16:09;;;;;;;19.45;13.50;;;18.10;91.70;;;;;;5088201;28;20031;-87
2021/07/04 03:18:34;;;;;;;16.42;14.35;;;17.90;91.60;;;;;;5072044;28;20047;-87
2021/07/04 03:21:00;;;;;;;17.45;13.48;;;17.90;92.20;;;;;;5055564;28;20077;-85
2021/07/04 03:23:25;;;;;;;17.30;13.88;;;17.90;92.90;;;;;;5074106;28;20474;-86
2021/07/04 03:25:53;;;;;;;18.60;13.38;;;17.90;92.20;;;;;;5071016;28;20115;-87
2021/07/04 03:28:18;;;;;;;16.85;13.13;;;17.90;92.20;;;;;;5069630;28;20036;-86
2021/07/04 03:30:44;;;;;;;14.82;13.35;;;17.80;92.30;;;;;;5072510;28;20376;-87
2021/07/04 03:33:09;;;;;;;16.48;13.50;;;17.80;92.00;;;;;;5069886;28;20353;-87
2021/07/04 03:35:35;;;;;;;20.10;15.00;;;17.80;92.80;;;;;;5073742;28;20080;-86
2021/07/04 03:38:00;;;;;;;17.17;14.88;;;17.80;92.20;;;;;;5071781;28;20032;-86
2021/07/04 03:40:26;;;;;;;15.95;14.18;;;17.80;92.50;;;;;;5071149;28;20103;-85
2021/07/04 03:42:51;;;;;;;16.80;13.43;;;17.80;92.10;;;;;;5076678;28;20028;-87
2021/07/04 03:45:17;;;;;;;18.90;14.15;;;17.80;91.30;;;;;;5054558;28;20055;-87
2021/07/04 03:47:43;;;;;;;15.68;14.07;;;17.80;91.50;;;;;;5072409;28;20444;-87
2021/07/04 03:50:09;;;;;;;15.02;13.45;;;17.70;91.90;;;;;;5054560;27;20492;-87
2021/07/04 03:52:35;;;;;;;18.42;13.73;;;17.70;91.90;;;;;;5072938;28;20028;-86
2021/07/04 03:55:00;;;;;;;16.63;14.02;;;17.70;91.80;;;;;;5072077;28;20139;-86
2021/07/04 03:57:28;;;;;;;16.00;14.05;;;17.60;92.40;;;;;;5074814;28;20043;-86
2021/07/04 03:59:55;;;;;;;19.17;14.90;;;17.60;92.40;;;;;;5055158;28;21076;-85
2021/07/04 04:02:21;;;;;;;15.77;14.00;;;17.60;92.30;;;;;;5053527;28;20055;-87
2021/07/04 04:04:46;;;;;;;12.65;11.15;;;17.70;91.60;;;;;;5074050;28;20078;-87
2021/07/04 04:07:12;;;;;;;17.77;14.35;;;17.70;91.80;;;;;;5073536;28;20051;-87
2021/07/04 04:09:37;;;;;;;11.55;10.35;;;17.70;93.30;;;;;;5068096;28;20040;-86
2021/07/04 04:12:03;;;;;;;18.35;15.27;;;17.90;91.30;;;;;;5073985;28;20438;-87
2021/07/04 04:14:29;;;;;;;11.13;9.77;;;17.70;91.90;;;;;;5092155;28;20035;-83
2021/07/04 04:16:54;;;;;;;16.90;14.13;;;17.70;93.30;;;;;;5056855;28;20082;-86
2021/07/04 04:19:20;;;;;;;16.10;13.85;;;17.80;92.10;;;;;;5090518;28;20020;-86
2021/07/04 04:21:45;;;;;;;13.02;11.52;;;17.70;92.40;;;;;;5071375;28;20030;-87
2021/07/04 04:24:11;;;;;;;13.27;10.85;;;17.70;91.60;;;;;;5055301;28;20039;-87
2021/07/04 04:26:37;;;;;;;15.18;13.00;;;17.80;91.20;;;;;;5072544;28;20444;-87
2021/07/04 04:29:02;;;;;;;14.30;12.45;;;17.80;91.80;;;;;;5069173;28;20085;-87
2021/07/04 04:31:28;;;;;;;15.20;13.07;;;17.80;92.20;;;;;;5071979;28;20028;-80
2021/07/04 04:33:54;;;;;;;8.65;7.72;;;17.80;92.00;;;;;;5054335;28;20035;-80
2021/07/04 04:36:19;;;;;;;14.68;11.40;;;17.80;92.20;;;;;;5083035;28;20031;-79
2021/07/04 04:38:45;;;;;;;8.85;7.30;;;17.80;92.50;;;;;;5070532;28;20483;-80
2021/07/04 04:41:10;;;;;;;8.13;7.00;;;17.90;92.80;;;;;;5074564;28;20066;-80
2021/07/04 04:43:36;;;;;;;12.38;11.05;;;18.00;91.40;;;;;;5073384;28;20028;-81
2021/07/04 04:46:01;;;;;;;8.95;8.05;;;18.00;91.30;;;;;;5071694;28;20036;-80
2021/07/04 04:48:27;;;;;;;18.27;14.00;;;18.10;91.30;;;;;;5069004;28;20024;-80
2021/07/04 04:50:52;;;;;;;11.77;10.50;;;17.90;92.10;;;;;;5046668;28;20052;-82
2021/07/04 04:53:18;;;;;;;20.48;16.42;;;17.80;92.50;;;;;;5069630;28;20028;-82
2021/07/04 04:55:43;;;;;;;15.98;12.82;;;17.80;92.40;;;;;;5070296;28;20476;-81
2021/07/04 04:58:09;;;;;;;10.85;9.57;;;17.90;92.20;;;;;;5069749;28;20093;-82
2021/07/04 05:00:34;;;;;;;12.60;10.90;;;18.00;92.10;;;;;;5069774;28;20073;-82
2021/07/04 05:03:05;;;;;;;12.40;11.10;;;18.00;91.90;;;;;;5075684;28;20157;-81
2021/07/04 05:05:31;;;;;;;12.10;10.15;;;18.10;91.80;;;;;;5060551;28;20024;-83
2021/07/04 05:07:57;;;;;;;8.65;7.75;;;18.00;92.40;;;;;;5051069;28;20050;-82
2021/07/04 05:10:22;;;;;;;10.02;9.07;;;18.10;92.40;;;;;;5075129;28;20036;-81
2021/07/04 05:12:48;;;;;;;9.55;8.60;;;18.00;91.60;;;;;;5056925;28;20032;-80
2021/07/04 05:15:13;;;;;;;11.13;9.07;;;18.10;91.90;;;;;;5072608;28;20048;-80
2021/07/04 05:17:39;;;;;;;17.23;15.18;;;18.10;92.00;;;;;;5056011;28;20032;-81
2021/07/04 05:20:06;;;;;;;17.35;15.38;;;18.10;94.70;;;;;;5051931;28;20020;-81
2021/07/04 05:22:31;;;;;;;14.55;12.98;;;18.10;92.00;;;;;;5070202;28;20089;-82
2021/07/04 05:24:57;;;;;;;18.90;15.80;;;18.10;92.20;;;;;;5052401;28;20028;-81
2021/07/04 05:27:22;;;;;;;19.17;17.23;;;18.10;92.40;;;;;;5068969;28;20040;-82
2021/07/04 05:29:48;;;;;;;20.83;17.15;;;18.10;92.30;;;;;;5051271;28;20031;-82
2021/07/04 05:32:13;;;;;;;11.70;9.77;;;18.10;91.80;;;;;;5070007;28;20056;-81
2021/07/04 05:34:39;;;;;;;17.65;14.90;;;18.10;92.00;;;;;;5083935;28;20048;-82
2021/07/04 05:37:04;;;;;;;21.73;17.38;;;18.30;91.20;;;;;;5068452;28;20028;-82
2021/07/04 05:39:31;;;;;;;17.50;13.70;;;18.40;93.40;;;;;;5069512;28;20365;-81
2021/07/04 05:41:56;;;;;;;12.77;10.52;;;18.50;92.50;;;;;;5067330;28;20028;-83
2021/07/04 05:44:22;;;;;;;20.63;16.75;;;18.60;91.80;;;;;;5070113;28;20030;-84
2021/07/04 05:46:48;;;;;;;21.75;17.70;;;18.70;91.80;;;;;;5072381;28;20024;-81
2021/07/04 05:49:13;;;;;;;19.13;16.88;;;18.80;91.90;;;;;;5053599;28;20031;-82
2021/07/04 05:51:39;;;;;;;18.15;15.23;;;18.80;92.20;;;;;;5064567;28;20020;-82
2021/07/04 05:54:05;;;;;;;18.08;15.70;;;18.90;91.80;;;;;;5086161;28;20110;-83
2021/07/04 05:56:30;;;;;;;19.40;17.00;;;19.00;91.50;;;;;;5069957;28;20442;-82
2021/07/04 05:58:56;;;;;;;17.60;14.15;;;19.10;91.90;;;;;;5060907;28;20036;-81
2021/07/04 06:01:21;;;;;;;9.63;8.73;;;19.10;91.60;;;;;;5056301;28;20119;-82
2021/07/04 06:03:47;;;;;;;7.45;6.70;;;19.20;91.40;;;;;;5072584;28;20033;-83
2021/07/04 06:06:12;;;;;;;10.35;8.75;;;19.20;90.90;;;;;;5068822;28;20114;-82
2021/07/04 06:08:39;;;;;;;16.23;14.00;;;19.30;91.30;;;;;;5053500;28;20473;-81
2021/07/04 06:11:05;;;;;;;17.98;16.02;;;19.40;91.30;;;;;;5056790;28;20119;-82
2021/07/04 06:13:30;;;;;;;20.23;15.15;;;19.50;91.50;;;;;;5052026;28;20036;-82
2021/07/04 06:15:56;;;;;;;7.90;7.10;;;19.80;91.00;;;;;;5067819;28;20039;-81
2021/07/04 06:18:21;;;;;;;8.80;7.65;;;20.00;90.70;;;;;;5089247;28;20115;-82
2021/07/04 06:20:47;;;;;;;9.93;7.72;;;20.30;91.00;;;;;;5069601;28;20150;-82
2021/07/04 06:23:12;;;;;;;8.00;7.18;;;20.40;90.50;;;;;;5054282;28;20448;-82
2021/07/04 06:25:38;;;;;;;9.35;8.18;;;20.60;91.10;;;;;;5086848;28;20043;-82
2021/07/04 06:28:04;;;;;;;11.45;7.95;;;20.60;90.70;;;;;;5069084;28;20047;-82
2021/07/04 06:30:30;;;;;;;12.32;10.90;;;20.70;90.60;;;;;;5069018;28;20536;-82
2021/07/04 06:32:56;;;;;;;10.27;8.25;;;20.90;91.00;;;;;;5052625;28;20064;-82
2021/07/04 06:35:21;;;;;;;9.68;8.65;;;21.10;91.20;;;;;;5070859;28;20447;-81
2021/07/04 06:37:50;;;;;;;12.20;9.68;;;21.20;91.40;;;;;;5067223;28;20032;-82
2021/07/04 06:40:15;;;;;;;9.63;8.63;;;21.20;91.20;;;;;;5068168;28;20036;-81
2021/07/04 06:42:41;;;;;;;10.68;9.43;;;21.40;91.40;;;;;;5059629;28;20086;-82
2021/07/04 06:45:09;;;;;;;10.02;9.02;;;21.50;91.50;;;;;;5068316;28;20092;-82
2021/07/04 06:47:35;;;;;;;11.93;9.10;;;21.50;91.60;;;;;;5051308;28;20028;-81
2021/07/04 06:50:01;;;;;;;13.25;11.90;;;21.60;91.70;;;;;;5074228;28;20052;-82
2021/07/04 06:52:26;;;;;;;12.25;10.98;;;21.80;92.10;;;;;;5067038;28;20067;-80
2021/07/04 06:54:52;;;;;;;12.60;10.88;;;22.00;92.00;;;;;;5068866;28;20035;-79
2021/07/04 06:57:27;;;;;;;12.02;10.02;;;22.50;92.60;;;;;;5068741;28;20040;-80
2021/07/04 06:59:56;;;;;;;11.40;10.03;;;22.70;92.50;;;;;;5069023;28;20069;-80
2021/07/04 07:02:22;;;;;;;13.98;11.80;;;23.30;93.10;;;;;;5064998;28;20898;-81
2021/07/04 07:04:47;;;;;;;12.35;11.07;;;23.60;93.30;;;;;;5050710;28;20103;-79
2021/07/04 07:07:13;;;;;;;9.85;8.85;;;23.70;90.90;;;;;;5067833;28;20131;-80
2021/07/04 07:09:38;;;;;;;13.05;11.63;;;24.10;93.20;;;;;;5056406;28;20021;-80
2021/07/04 07:12:04;;;;;;;9.57;8.40;;;24.70;93.50;;;;;;5089501;28;20398;-80
2021/07/04 07:14:30;;;;;;;11.55;9.80;;;24.90;91.20;;;;;;5073976;28;20026;-80
2021/07/04 07:16:55;;;;;;;9.25;8.25;;;25.30;92.70;;;;;;5077434;28;20047;-80
2021/07/04 07:19:21;;;;;;;9.07;8.18;;;25.40;91.50;;;;;;5073678;28;20059;-80
2021/07/04 07:21:46;;;;;;;10.05;8.88;;;26.00;92.60;;;;;;5090940;28;20154;-80
2021/07/04 07:24:12;;;;;;;10.55;8.57;;;25.80;88.40;;;;;;5050551;27;20113;-79
2021/07/04 07:26:37;;;;;;;8.73;7.82;;;26.30;92.60;;;;;;5072017;28;20043;-79
2021/07/04 07:29:03;;;;;;;10.65;7.88;;;26.70;89.10;;;;;;5088176;28;20131;-79
2021/07/04 07:31:31;;;;;;;10.45;8.32;;;26.80;90.80;;;;;;5068809;27;20032;-80
2021/07/04 07:33:56;;;;;;;12.40;8.57;;;26.40;85.50;;;;;;5058305;28;20082;-81
2021/07/04 07:36:22;;;;;;;13.73;9.93;;;26.40;89.10;;;;;;5070681;28;20117;-79
2021/07/04 07:38:47;;;;;;;8.60;7.70;;;27.10;91.90;;;;;;5071553;28;20439;-80
2021/07/04 07:41:13;;;;;;;10.60;9.00;;;27.70;90.90;;;;;;5070180;28;20047;-80
2021/07/04 07:43:38;;;;;;;10.20;8.98;;;27.80;90.40;;;;;;5052737;28;20105;-79
2021/07/04 07:46:04;;;;;;;12.75;9.35;;;27.70;90.50;;;;;;5070204;28;20066;-80
2021/07/04 07:48:29;;;;;;;10.43;8.25;;;27.90;89.80;;;;;;5071070;28;20111;-79
2021/07/04 07:50:55;;;;;;;11.05;8.43;;;28.00;89.50;;;;;;5070879;28;20117;-79
2021/07/04 07:53:20;;;;;;;9.15;7.93;;;28.00;88.30;;;;;;5070357;28;20501;-80
2021/07/04 07:55:46;;;;;;;11.48;8.98;;;27.90;87.40;;;;;;5053610;28;20442;-80
2021/07/04 07:58:11;;;;;;;12.10;9.80;;;28.00;87.10;;;;;;5051730;28;20103;-79
2021/07/04 08:00:37;;;;;;;10.32;8.82;;;28.10;87.00;;;;;;5086247;28;20028;-80
2021/07/04 08:03:03;;;;;;;11.15;8.30;;;28.20;86.70;;;;;;5069661;28;20447;-79
2021/07/04 08:05:28;;;;;;;10.52;8.35;;;28.20;86.00;;;;;;5068922;28;20514;-81
2021/07/04 08:07:54;;;;;;;11.90;9.18;;;28.10;86.30;;;;;;5067046;28;20032;-80
2021/07/04 08:10:19;;;;;;;12.43;9.27;;;28.30;86.40;;;;;;5071427;28;20036;-80
2021/07/04 08:12:45;;;;;;;10.80;7.60;;;28.70;87.40;;;;;;5053006;28;20020;-80
2021/07/04 08:15:11;;;;;;;8.13;6.72;;;28.90;85.60;;;;;;5073807;28;20077;-81
2021/07/04 08:17:37;;;;;;;9.23;7.28;;;29.10;86.00;;;;;;5052961;28;20035;-81
2021/07/04 08:20:04;;;;;;;10.38;7.25;;;29.50;85.00;;;;;;5072084;28;20036;-81
2021/07/04 08:22:29;;;;;;;9.07;7.68;;;29.90;82.30;;;;;;5090230;28;20519;-81
2021/07/04 08:24:55;;;;;;;15.40;9.38;;;30.40;82.50;;;;;;5069798;28;20035;-82
2021/07/04 08:27:20;;;;;;;15.80;10.30;;;30.60;83.50;;;;;;5050941;28;20557;-82
2021/07/04 08:29:46;;;;;;;8.48;7.18;;;30.90;79.80;;;;;;5068845;28;20023;-82
2021/07/04 08:32:11;;;;;;;12.15;9.45;;;31.10;78.40;;;;;;5066734;28;20028;-81
2021/07/04 08:34:37;;;;;;;12.57;8.70;;;31.40;79.10;;;;;;5071465;28;20054;-81
2021/07/04 08:37:03;;;;;;;9.52;7.15;;;31.80;76.80;;;;;;5068973;28;20357;-80
2021/07/04 08:39:28;;;;;;;7.72;6.75;;;31.90;76.80;;;;;;5066968;28;21185;-79
2021/07/04 08:41:54;;;;;;;8.25;5.80;;;32.00;75.80;;;;;;5068180;28;20040;-79
2021/07/04 08:44:19;;;;;;;7.28;5.70;;;31.80;77.00;;;;;;5067295;28;20438;-79
2021/07/04 08:46:45;;;;;;;8.10;5.82;;;32.00;75.80;;;;;;5051481;28;20385;-79
2021/07/04 08:49:12;;;;;;;9.55;5.95;;;31.90;74.90;;;;;;5052215;28;20384;-79
2021/07/04 08:51:38;;;;;;;6.57;5.97;;;32.10;74.50;;;;;;5053881;28;20042;-77
2021/07/04 08:54:03;;;;;;;8.90;5.50;;;32.00;73.50;;;;;;5087318;28;20031;-77
2021/07/04 08:56:29;;;;;;;5.43;4.93;;;32.00;72.40;;;;;;5052612;28;20058;-77
2021/07/04 08:58:55;;;;;;;6.40;5.80;;;32.00;72.90;;;;;;5084819;28;20078;-77
2021/07/04 09:01:21;;;;;;;8.07;6.30;;;32.20;74.10;;;;;;5068103;28;20031;-78
2021/07/04 09:04:08;;;;;;;7.15;5.60;;;32.60;71.50;;;;;;5051102;28;20115;-76
2021/07/04 09:06:41;;;;;;;8.07;5.90;;;32.90;70.70;;;;;;5065423;28;20032;-76
2021/07/04 09:09:29;;;;;;;7.70;7.00;;;33.10;70.10;;;;;;5072717;28;20038;-76
2021/07/04 09:12:00;;;;;;;7.38;6.47;;;33.50;69.30;;;;;;5067144;28;20626;-77
2021/07/04 09:14:32;;;;;;;7.72;6.10;;;33.50;68.80;;;;;;5072449;28;20034;-75
2021/07/04 09:16:58;;;;;;;8.20;6.40;;;33.40;67.50;;;;;;5087991;28;20111;-75
2021/07/04 09:19:23;;;;;;;8.07;7.03;;;33.50;66.30;;;;;;5068177;28;20131;-76
2021/07/04 09:22:15;;;;;;;6.60;6.00;;;33.50;65.90;;;;;;5086029;28;20519;-76
2021/07/04 09:24:42;;;;;;;7.32;5.68;;;33.60;66.90;;;;;;5082567;28;21203;-76
2021/07/04 09:27:12;;;;;;;6.68;5.82;;;33.70;65.70;;;;;;5067847;28;20107;-75
2021/07/04 09:29:50;;;;;;;8.57;5.88;;;34.10;66.30;;;;;;5069019;28;20032;-76
2021/07/04 09:32:27;;;;;;;7.47;5.97;;;34.20;65.70;;;;;;5082502;28;20047;-77
2021/07/04 09:35:02;;;;;;;5.90;4.95;;;34.50;65.00;;;;;;5069564;28;20404;-76
2021/07/04 09:37:27;;;;;;;;;;;34.70;64.50;;;;;;5081131;28;20037;-76
2021/07/04 09:40:12;;;;;;;;;;;34.90;64.10;;;;;;5082079;28;19911;-75
2021/07/04 09:42:56;;;;;;;9.20;7.68;;;34.90;63.30;;;;;;5083195;28;20423;-75
2021/07/04 09:45:22;;;;;;;7.43;6.00;;;34.80;66.20;;;;;;5081046;28;20028;-76
2021/07/04 09:47:57;;;;;;;11.70;6.82;;;34.30;68.50;;;;;;5062981;28;20016;-77
2021/07/04 09:50:23;;;;;;;6.82;5.97;;;33.60;71.20;;;;;;5084771;28;20148;-78
2021/07/04 09:53:00;;;;;;;10.70;7.13;;;32.80;75.00;;;;;;5070295;28;20028;-78
2021/07/04 09:55:25;;;;;;;7.32;6.63;;;31.80;77.20;;;;;;5052720;28;20495;-77
2021/07/04 09:57:55;;;;;;;10.07;7.03;;;30.70;79.40;;;;;;5084374;28;20031;-77
2021/07/04 10:00:21;;;;;;;9.23;6.97;;;30.20;81.30;;;;;;5084328;28;20032;-79
2021/07/04 10:03:18;;;;;;;8.75;7.88;;;29.70;82.30;;;;;;5048871;28;20024;-77
2021/07/04 10:05:44;;;;;;;7.13;6.43;;;29.30;83.30;;;;;;5083132;28;20020;-76
2021/07/04 10:08:27;;;;;;;7.93;7.13;;;28.90;83.00;;;;;;5079646;28;20043;-76
2021/07/04 10:11:12;;;;;;;8.02;7.28;;;28.50;84.90;;;;;;5084549;28;20038;-76
2021/07/04 10:13:43;;;;;;;22.03;7.03;;;28.20;85.50;;;;;;5072136;28;20069;-77
2021/07/04 10:16:11;;;;;;;8.63;6.40;;;27.70;86.60;;;;;;5087447;28;20032;-77
2021/07/04 10:18:37;;;;;;;11.23;7.43;;;27.40;87.20;;;;;;5047291;28;20521;-77
2021/07/04 10:21:02;;;;;;;24.58;8.20;;;27.20;85.80;;;;;;5071279;28;20025;-75
2021/07/04 10:23:28;;;;;;;8.05;6.32;;;27.00;87.20;;;;;;5068647;28;20348;-76
2021/07/04 10:25:55;;;;;;;7.35;6.55;;;26.80;88.40;;;;;;5084055;28;20033;-76
2021/07/04 10:28:31;;;;;;;10.07;8.20;;;26.70;90.10;;;;;;5083257;28;20868;-76
2021/07/04 10:30:57;;;;;;;7.65;6.88;;;26.80;90.60;;;;;;5083127;28;20458;-77
2021/07/04 10:33:26;;;;;;;8.27;7.40;;;27.10;91.00;;;;;;5080991;28;20040;-76
2021/07/04 10:36:05;;;;;;;7.18;6.47;;;27.40;91.50;;;;;;5069184;28;20101;-76
2021/07/04 10:39:09;;;;;;;8.25;6.07;;;27.80;91.80;;;;;;5081737;28;20040;-76
2021/07/04 10:41:35;;;;;;;7.70;5.57;;;28.20;91.80;;;;;;5036142;28;20040;-76
2021/07/04 10:44:04;;;;;;;6.10;5.53;;;28.50;91.50;;;;;;5045373;28;20134;-76
2021/07/04 10:46:46;;;;;;;6.80;5.40;;;28.90;92.00;;;;;;5087113;28;20043;-76
2021/07/04 10:49:12;;;;;;;6.80;5.70;;;29.30;90.60;;;;;;5088839;28;20059;-75
2021/07/04 10:51:57;;;;;;;6.45;5.78;;;29.70;91.30;;;;;;5074036;28;20024;-75
2021/07/04 10:54:53;;;;;;;6.18;5.57;;;30.20;90.80;;;;;;5087197;28;20127;-76
2021/07/04 10:57:30;;;;;;;7.40;5.47;;;30.70;89.10;;;;;;5086702;28;20047;-76
2021/07/04 11:00:04;;;;;;;5.97;5.20;;;30.90;87.00;;;;;;5087663;28;20474;-75
2021/07/04 11:02:45;;;;;;;6.72;4.90;;;31.10;83.70;;;;;;5086930;28;20040;-76
2021/07/04 11:05:12;;;;;;;5.63;5.13;;;31.30;83.90;;;;;;5076604;28;20021;-75
2021/07/04 11:07:53;;;;;;;5.05;4.43;;;31.50;82.90;;;;;;5069265;28;20674;-75
2021/07/04 11:10:24;;;;;;;4.90;4.47;;;31.80;81.30;;;;;;5086561;28;20044;-77
2021/07/04 11:12:53;;;;;;;5.60;5.05;;;32.10;82.30;;;;;;5058462;28;20029;-76
2021/07/04 11:15:18;;;;;;;5.18;4.68;;;32.30;80.10;;;;;;5084077;28;20032;-76
2021/07/04 11:20:26;;;;;;;6.82;4.88;;;32.70;77.70;;;;;;5086367;28;20491;-74
2021/07/04 11:22:57;;;;;;;5.03;4.63;;;32.80;77.10;;;;;;5071113;28;20027;-75
2021/07/04 11:25:23;;;;;;;5.80;5.10;;;32.90;77.80;;;;;;5084215;28;20059;-76
2021/07/04 11:28:20;;;;;;;4.88;4.40;;;32.90;75.00;;;;;;5052741;28;20508;-75
2021/07/04 11:31:07;;;;;;;5.10;4.60;;;33.10;69.40;;;;;;5086488;28;20032;-75
2021/07/04 11:33:39;;;;;;;5.05;4.43;;;33.20;73.30;;;;;;5066470;28;20044;-75
2021/07/04 11:36:09;;;;;;;4.88;4.47;;;33.00;68.70;;;;;;5081468;28;20039;-75
2021/07/04 11:38:45;;;;;;;7.03;4.97;;;32.90;72.60;;;;;;5086933;28;20047;-75
2021/07/04 11:41:12;;;;;;;4.80;4.40;;;32.90;71.90;;;;;;5069868;28;20050;-75
2021/07/04 11:43:39;;;;;;;4.97;4.53;;;32.80;70.30;;;;;;5070562;28;20036;-75
2021/07/04 11:46:06;;;;;;;5.60;4.47;;;32.80;68.40;;;;;;5087045;28;20089;-75
2021/07/04 11:48:50;;;;;;;5.32;4.90;;;32.70;69.20;;;;;;5069067;28;20036;-75
2021/07/04 11:51:35;;;;;;;5.63;5.13;;;32.80;71.70;;;;;;5091989;28;20404;-75
2021/07/04 11:54:15;;;;;;;6.20;4.90;;;32.90;70.60;;;;;;5084994;28;20047;-75
2021/07/04 11:56:42;;;;;;;5.50;5.00;;;32.90;68.90;;;;;;5087668;28;20598;-75
2021/07/04 11:59:27;;;;;;;5.25;4.43;;;32.90;70.60;;;;;;5069539;28;20089;-76
2021/07/04 12:02:02;;;;;;;5.50;4.95;;;32.90;70.20;;;;;;5086638;28;20028;-76
2021/07/04 12:04:35;;;;;;;5.13;4.73;;;32.80;68.30;;;;;;5060645;28;20067;-75
2021/07/04 12:07:05;;;;;;;4.80;4.40;;;32.90;69.30;;;;;;5086093;28;20829;-75
2021/07/04 12:09:51;;;;;;;5.47;5.07;;;32.80;70.90;;;;;;5080878;28;20036;-76
2021/07/04 12:12:23;;;;;;;;;;;33.00;70.40;;;;;;5078958;28;20028;-75
2021/07/04 12:14:52;;;;;;;5.32;4.90;;;33.00;68.30;;;;;;5081777;28;20287;-74
2021/07/04 12:17:21;;;;;;;5.90;5.30;;;33.00;70.40;;;;;;5071151;28;20032;-75
2021/07/04 12:19:53;;;;;;;5.88;5.38;;;33.10;69.10;;;;;;5091483;28;20325;-75
2021/07/04 12:22:21;;;;;;;7.47;6.28;;;33.20;68.90;;;;;;5073359;28;20028;-74
2021/07/04 12:24:46;;;;;;;6.30;5.80;;;33.10;69.10;;;;;;5049728;28;20028;-76
2021/07/04 12:27:12;;;;;;;5.47;4.97;;;33.30;70.20;;;;;;5067954;28;20028;-75
2021/07/04 12:30:05;;;;;;;6.70;5.90;;;33.20;69.90;;;;;;5088225;28;20024;-76
2021/07/04 12:32:31;;;;;;;5.97;5.38;;;33.20;70.60;;;;;;5086074;28;20024;-75
2021/07/04 12:34:57;;;;;;;5.68;5.18;;;33.30;68.10;;;;;;5085431;28;20388;-76
2021/07/04 12:37:26;;;;;;;6.93;5.30;;;32.50;64.50;;;;;;5084736;28;20032;-75
2021/07/04 12:40:05;;;;;;;5.95;5.43;;;32.10;65.10;;;;;;5067239;28;20399;-75
2021/07/04 12:42:31;;;;;;;6.53;4.82;;;32.90;67.70;;;;;;5065304;28;20028;-76
2021/07/04 12:45:16;;;;;;;4.90;4.50;;;33.30;69.00;;;;;;5051357;28;20081;-76